sensor_id;sensor_type;location;lat;lon;timestamp;P1;durP1;ratioP1;P2;durP2;ratioP2
4698;SDS011;33708;49.466;11.176;2023-12-22T00:02:08;10.27;;;2.40;;
4698;SDS011;33708;49.466;11.176;2023-12-22T00:04:34;8.03;;;2.17;;
4698;SDS011;33708;49.466;11.176;2023-12-22T00:06:59;7.90;;;1.80;;
4698;SDS011;33708;49.466;11.176;2023-12-22T00:09:25;11.17;;;1.73;;
4698;SDS011;33708;49.466;11.176;2023-12-22T00:11:50;8.60;;;1.63;;
4698;SDS011;33708;49.466;11.176;2023-12-22T00:14:16;4.10;;;1.40;;
4698;SDS011;33708;49.466;11.176;2023-12-22T00:16:42;13.40;;;1.97;;
4698;SDS011;33708;49.466;11.176;2023-12-22T00:19:07;8.27;;;1.67;;
4698;SDS011;33708;49.466;11.176;2023-12-22T00:21:34;10.60;;;2.80;;
4698;SDS011;33708;49.466;11.176;2023-12-22T00:23:59;4.30;;;1.40;;
4698;SDS011;33708;49.466;11.176;2023-12-22T00:26:25;11.20;;;2.20;;
4698;SDS011;33708;49.466;11.176;2023-12-22T00:28:50;8.63;;;1.77;;
4698;SDS011;33708;49.466;11.176;2023-12-22T00:31:16;7.63;;;1.87;;
4698;SDS011;33708;49.466;11.176;2023-12-22T00:33:41;9.00;;;2.03;;
4698;SDS011;33708;49.466;11.176;2023-12-22T00:36:07;10.33;;;1.77;;
4698;SDS011;33708;49.466;11.176;2023-12-22T00:38:33;9.07;;;1.73;;
4698;SDS011;33708;49.466;11.176;2023-12-22T00:41:00;13.20;;;1.67;;
4698;SDS011;33708;49.466;11.176;2023-12-22T00:46:35;8.50;;;2.17;;
4698;SDS011;33708;49.466;11.176;2023-12-22T00:49:01;7.73;;;1.73;;
4698;SDS011;33708;49.466;11.176;2023-12-22T00:51:27;8.23;;;2.23;;
4698;SDS011;33708;49.466;11.176;2023-12-22T00:53:54;13.40;;;2.50;;
4698;SDS011;33708;49.466;11.176;2023-12-22T00:56:19;6.53;;;1.50;;
4698;SDS011;33708;49.466;11.176;2023-12-22T00:58:45;14.43;;;1.83;;
4698;SDS011;33708;49.466;11.176;2023-12-22T01:01:13;9.30;;;1.80;;
4698;SDS011;33708;49.466;11.176;2023-12-22T01:06:28;8.87;;;2.03;;
4698;SDS011;33708;49.466;11.176;2023-12-22T01:08:54;13.37;;;1.70;;
4698;SDS011;33708;49.466;11.176;2023-12-22T01:11:25;9.00;;;2.50;;
4698;SDS011;33708;49.466;11.176;2023-12-22T01:14:18;7.90;;;2.50;;
4698;SDS011;33708;49.466;11.176;2023-12-22T01:16:44;13.20;;;2.40;;
4698;SDS011;33708;49.466;11.176;2023-12-22T01:19:10;12.40;;;2.60;;
4698;SDS011;33708;49.466;11.176;2023-12-22T01:21:40;8.73;;;1.70;;
4698;SDS011;33708;49.466;11.176;2023-12-22T01:24:08;11.93;;;2.43;;
4698;SDS011;33708;49.466;11.176;2023-12-22T01:26:36;11.90;;;2.47;;
4698;SDS011;33708;49.466;11.176;2023-12-22T01:29:02;13.60;;;2.10;;
4698;SDS011;33708;49.466;11.176;2023-12-22T01:31:28;11.33;;;2.00;;
4698;SDS011;33708;49.466;11.176;2023-12-22T01:33:55;13.43;;;2.53;;
4698;SDS011;33708;49.466;11.176;2023-12-22T01:36:21;8.30;;;1.90;;
4698;SDS011;33708;49.466;11.176;2023-12-22T01:38:47;9.30;;;2.10;;
4698;SDS011;33708;49.466;11.176;2023-12-22T01:41:12;11.20;;;1.80;;
4698;SDS011;33708;49.466;11.176;2023-12-22T01:43:38;13.67;;;2.60;;
4698;SDS011;33708;49.466;11.176;2023-12-22T01:46:04;6.43;;;1.70;;
4698;SDS011;33708;49.466;11.176;2023-12-22T01:48:32;11.10;;;1.40;;
4698;SDS011;33708;49.466;11.176;2023-12-22T01:50:59;9.20;;;1.77;;
4698;SDS011;33708;49.466;11.176;2023-12-22T01:53:27;11.07;;;2.10;;
4698;SDS011;33708;49.466;11.176;2023-12-22T01:55:54;7.90;;;1.80;;
4698;SDS011;33708;49.466;11.176;2023-12-22T01:58:20;10.60;;;2.30;;
4698;SDS011;33708;49.466;11.176;2023-12-22T02:00:48;6.30;;;1.43;;
4698;SDS011;33708;49.466;11.176;2023-12-22T02:03:14;10.57;;;2.10;;
4698;SDS011;33708;49.466;11.176;2023-12-22T02:05:41;13.30;;;1.97;;
4698;SDS011;33708;49.466;11.176;2023-12-22T02:08:07;8.83;;;1.70;;
4698;SDS011;33708;49.466;11.176;2023-12-22T02:10:33;10.20;;;2.43;;
4698;SDS011;33708;49.466;11.176;2023-12-22T02:12:58;11.20;;;1.90;;
4698;SDS011;33708;49.466;11.176;2023-12-22T02:15:24;13.70;;;1.40;;
4698;SDS011;33708;49.466;11.176;2023-12-22T02:20:29;9.57;;;1.77;;
4698;SDS011;33708;49.466;11.176;2023-12-22T02:22:56;8.53;;;1.50;;
4698;SDS011;33708;49.466;11.176;2023-12-22T02:25:22;3.43;;;1.00;;
4698;SDS011;33708;49.466;11.176;2023-12-22T02:27:48;6.93;;;1.40;;
4698;SDS011;33708;49.466;11.176;2023-12-22T02:33:04;6.23;;;1.23;;
4698;SDS011;33708;49.466;11.176;2023-12-22T02:35:33;7.87;;;1.50;;
4698;SDS011;33708;49.466;11.176;2023-12-22T02:38:02;4.70;;;1.10;;
4698;SDS011;33708;49.466;11.176;2023-12-22T02:40:29;4.10;;;1.37;;
4698;SDS011;33708;49.466;11.176;2023-12-22T02:42:55;4.60;;;1.10;;
4698;SDS011;33708;49.466;11.176;2023-12-22T02:45:22;3.90;;;0.90;;
4698;SDS011;33708;49.466;11.176;2023-12-22T02:48:02;5.17;;;1.07;;
4698;SDS011;33708;49.466;11.176;2023-12-22T02:50:28;12.17;;;1.37;;
4698;SDS011;33708;49.466;11.176;2023-12-22T02:52:55;8.90;;;1.10;;
4698;SDS011;33708;49.466;11.176;2023-12-22T02:55:58;8.43;;;1.10;;
4698;SDS011;33708;49.466;11.176;2023-12-22T02:58:25;3.90;;;1.10;;
4698;SDS011;33708;49.466;11.176;2023-12-22T03:00:50;4.90;;;1.23;;
4698;SDS011;33708;49.466;11.176;2023-12-22T03:03:16;6.50;;;1.13;;
4698;SDS011;33708;49.466;11.176;2023-12-22T03:05:41;4.27;;;0.77;;
4698;SDS011;33708;49.466;11.176;2023-12-22T03:08:07;4.30;;;1.40;;
4698;SDS011;33708;49.466;11.176;2023-12-22T03:10:32;3.70;;;1.17;;
4698;SDS011;33708;49.466;11.176;2023-12-22T03:12:58;4.17;;;1.23;;
4698;SDS011;33708;49.466;11.176;2023-12-22T03:15:24;6.13;;;0.80;;
4698;SDS011;33708;49.466;11.176;2023-12-22T03:18:05;6.60;;;0.90;;
4698;SDS011;33708;49.466;11.176;2023-12-22T03:23:33;3.60;;;1.00;;
4698;SDS011;33708;49.466;11.176;2023-12-22T03:26:02;3.40;;;0.70;;
4698;SDS011;33708;49.466;11.176;2023-12-22T03:31:25;5.33;;;1.00;;
4698;SDS011;33708;49.466;11.176;2023-12-22T03:33:53;5.10;;;1.10;;
4698;SDS011;33708;49.466;11.176;2023-12-22T03:36:19;2.70;;;0.67;;
4698;SDS011;33708;49.466;11.176;2023-12-22T03:38:45;4.80;;;0.70;;
4698;SDS011;33708;49.466;11.176;2023-12-22T03:41:12;2.37;;;0.60;;
4698;SDS011;33708;49.466;11.176;2023-12-22T03:43:38;2.60;;;0.90;;
4698;SDS011;33708;49.466;11.176;2023-12-22T03:46:05;3.30;;;0.90;;
4698;SDS011;33708;49.466;11.176;2023-12-22T03:48:32;2.23;;;0.60;;
4698;SDS011;33708;49.466;11.176;2023-12-22T03:51:00;2.73;;;0.63;;
4698;SDS011;33708;49.466;11.176;2023-12-22T03:53:26;5.50;;;0.80;;
4698;SDS011;33708;49.466;11.176;2023-12-22T03:56:01;4.83;;;1.10;;
4698;SDS011;33708;49.466;11.176;2023-12-22T03:58:33;5.87;;;0.93;;
4698;SDS011;33708;49.466;11.176;2023-12-22T04:01:29;4.53;;;0.80;;
4698;SDS011;33708;49.466;11.176;2023-12-22T04:04:14;4.10;;;0.90;;
4698;SDS011;33708;49.466;11.176;2023-12-22T04:06:40;3.13;;;0.70;;
4698;SDS011;33708;49.466;11.176;2023-12-22T04:09:12;6.13;;;1.07;;
4698;SDS011;33708;49.466;11.176;2023-12-22T04:11:45;6.53;;;0.97;;
4698;SDS011;33708;49.466;11.176;2023-12-22T04:17:29;7.17;;;0.83;;
4698;SDS011;33708;49.466;11.176;2023-12-22T04:20:02;5.40;;;1.10;;
4698;SDS011;33708;49.466;11.176;2023-12-22T04:22:28;3.80;;;0.80;;
4698;SDS011;33708;49.466;11.176;2023-12-22T04:25:01;3.73;;;1.07;;
4698;SDS011;33708;49.466;11.176;2023-12-22T04:27:27;3.83;;;0.80;;
4698;SDS011;33708;49.466;11.176;2023-12-22T04:29:52;6.60;;;1.00;;
4698;SDS011;33708;49.466;11.176;2023-12-22T04:32:29;2.97;;;0.80;;
4698;SDS011;33708;49.466;11.176;2023-12-22T04:35:04;4.30;;;0.70;;
4698;SDS011;33708;49.466;11.176;2023-12-22T04:37:31;3.57;;;0.70;;
4698;SDS011;33708;49.466;11.176;2023-12-22T04:39:58;4.50;;;1.23;;
4698;SDS011;33708;49.466;11.176;2023-12-22T04:42:26;2.30;;;0.90;;
4698;SDS011;33708;49.466;11.176;2023-12-22T04:48:27;4.40;;;0.80;;
4698;SDS011;33708;49.466;11.176;2023-12-22T04:50:52;6.00;;;1.00;;
4698;SDS011;33708;49.466;11.176;2023-12-22T04:53:19;4.73;;;0.93;;
4698;SDS011;33708;49.466;11.176;2023-12-22T04:55:53;5.80;;;1.37;;
4698;SDS011;33708;49.466;11.176;2023-12-22T04:58:37;2.63;;;0.90;;
4698;SDS011;33708;49.466;11.176;2023-12-22T05:01:06;7.97;;;1.00;;
4698;SDS011;33708;49.466;11.176;2023-12-22T05:03:32;3.70;;;0.90;;
4698;SDS011;33708;49.466;11.176;2023-12-22T05:06:01;5.10;;;0.90;;
4698;SDS011;33708;49.466;11.176;2023-12-22T05:08:30;2.70;;;0.60;;
4698;SDS011;33708;49.466;11.176;2023-12-22T05:11:15;4.27;;;0.90;;
4698;SDS011;33708;49.466;11.176;2023-12-22T05:13:43;2.70;;;0.87;;
4698;SDS011;33708;49.466;11.176;2023-12-22T05:16:10;3.53;;;0.90;;
4698;SDS011;33708;49.466;11.176;2023-12-22T05:18:36;2.50;;;0.80;;
4698;SDS011;33708;49.466;11.176;2023-12-22T05:21:02;2.80;;;0.67;;
4698;SDS011;33708;49.466;11.176;2023-12-22T05:23:29;8.00;;;1.23;;
4698;SDS011;33708;49.466;11.176;2023-12-22T05:25:55;2.57;;;0.70;;
4698;SDS011;33708;49.466;11.176;2023-12-22T05:28:24;13.63;;;1.40;;
4698;SDS011;33708;49.466;11.176;2023-12-22T05:30:50;6.50;;;1.00;;
4698;SDS011;33708;49.466;11.176;2023-12-22T05:33:18;4.40;;;0.73;;
4698;SDS011;33708;49.466;11.176;2023-12-22T05:36:18;4.73;;;0.80;;
4698;SDS011;33708;49.466;11.176;2023-12-22T05:38:55;3.13;;;0.80;;
4698;SDS011;33708;49.466;11.176;2023-12-22T05:41:27;2.60;;;0.70;;
4698;SDS011;33708;49.466;11.176;2023-12-22T05:43:53;3.40;;;0.80;;
4698;SDS011;33708;49.466;11.176;2023-12-22T05:46:36;3.83;;;0.60;;
4698;SDS011;33708;49.466;11.176;2023-12-22T05:49:25;6.60;;;0.87;;
4698;SDS011;33708;49.466;11.176;2023-12-22T05:51:53;2.27;;;0.70;;
4698;SDS011;33708;49.466;11.176;2023-12-22T05:54:26;3.30;;;0.93;;
4698;SDS011;33708;49.466;11.176;2023-12-22T05:56:56;2.93;;;0.73;;
4698;SDS011;33708;49.466;11.176;2023-12-22T05:59:25;2.53;;;0.70;;
4698;SDS011;33708;49.466;11.176;2023-12-22T06:02:02;2.30;;;0.80;;
4698;SDS011;33708;49.466;11.176;2023-12-22T06:07:28;5.17;;;0.70;;
4698;SDS011;33708;49.466;11.176;2023-12-22T06:10:27;5.30;;;0.70;;
4698;SDS011;33708;49.466;11.176;2023-12-22T06:12:53;4.10;;;1.03;;
4698;SDS011;33708;49.466;11.176;2023-12-22T06:15:20;6.10;;;0.80;;
4698;SDS011;33708;49.466;11.176;2023-12-22T06:17:46;3.10;;;0.70;;
4698;SDS011;33708;49.466;11.176;2023-12-22T06:20:14;4.17;;;0.80;;
4698;SDS011;33708;49.466;11.176;2023-12-22T06:22:40;3.90;;;0.60;;
4698;SDS011;33708;49.466;11.176;2023-12-22T06:25:07;2.83;;;0.60;;
4698;SDS011;33708;49.466;11.176;2023-12-22T06:27:36;3.97;;;0.80;;
4698;SDS011;33708;49.466;11.176;2023-12-22T06:30:04;5.80;;;0.80;;
4698;SDS011;33708;49.466;11.176;2023-12-22T06:32:31;4.70;;;0.87;;
4698;SDS011;33708;49.466;11.176;2023-12-22T06:35:00;3.20;;;0.80;;
4698;SDS011;33708;49.466;11.176;2023-12-22T06:37:27;4.03;;;0.80;;
4698;SDS011;33708;49.466;11.176;2023-12-22T06:39:53;4.80;;;1.53;;
4698;SDS011;33708;49.466;11.176;2023-12-22T06:42:18;4.13;;;0.60;;
4698;SDS011;33708;49.466;11.176;2023-12-22T06:44:46;4.60;;;1.00;;
4698;SDS011;33708;49.466;11.176;2023-12-22T06:47:14;2.77;;;0.73;;
4698;SDS011;33708;49.466;11.176;2023-12-22T06:49:39;2.60;;;0.80;;
4698;SDS011;33708;49.466;11.176;2023-12-22T06:52:05;2.00;;;0.50;;
4698;SDS011;33708;49.466;11.176;2023-12-22T06:54:30;1.70;;;0.53;;
4698;SDS011;33708;49.466;11.176;2023-12-22T06:56:56;2.63;;;0.63;;
4698;SDS011;33708;49.466;11.176;2023-12-22T06:59:21;2.43;;;0.63;;
4698;SDS011;33708;49.466;11.176;2023-12-22T07:01:47;2.43;;;0.60;;
4698;SDS011;33708;49.466;11.176;2023-12-22T07:04:13;6.13;;;0.70;;
4698;SDS011;33708;49.466;11.176;2023-12-22T07:06:39;2.73;;;1.10;;
4698;SDS011;33708;49.466;11.176;2023-12-22T07:11:38;6.30;;;1.20;;
4698;SDS011;33708;49.466;11.176;2023-12-22T07:14:06;2.63;;;0.90;;
4698;SDS011;33708;49.466;11.176;2023-12-22T07:16:33;3.17;;;1.30;;
4698;SDS011;33708;49.466;11.176;2023-12-22T07:19:02;3.93;;;1.10;;
4698;SDS011;33708;49.466;11.176;2023-12-22T07:24:25;5.50;;;1.53;;
4698;SDS011;33708;49.466;11.176;2023-12-22T07:26:53;7.07;;;2.10;;
4698;SDS011;33708;49.466;11.176;2023-12-22T07:29:19;12.43;;;1.90;;
4698;SDS011;33708;49.466;11.176;2023-12-22T07:31:45;4.13;;;1.60;;
4698;SDS011;33708;49.466;11.176;2023-12-22T07:34:11;4.43;;;2.00;;
4698;SDS011;33708;49.466;11.176;2023-12-22T07:36:36;8.60;;;2.13;;
4698;SDS011;33708;49.466;11.176;2023-12-22T07:39:02;10.33;;;1.93;;
4698;SDS011;33708;49.466;11.176;2023-12-22T07:41:28;5.03;;;1.73;;
4698;SDS011;33708;49.466;11.176;2023-12-22T07:43:53;7.97;;;1.80;;
4698;SDS011;33708;49.466;11.176;2023-12-22T07:46:19;12.10;;;2.00;;
4698;SDS011;33708;49.466;11.176;2023-12-22T07:48:45;5.53;;;1.47;;
4698;SDS011;33708;49.466;11.176;2023-12-22T07:51:11;7.43;;;1.70;;
4698;SDS011;33708;49.466;11.176;2023-12-22T07:53:37;3.50;;;1.47;;
4698;SDS011;33708;49.466;11.176;2023-12-22T07:56:03;4.70;;;1.70;;
4698;SDS011;33708;49.466;11.176;2023-12-22T07:58:30;6.43;;;1.67;;
4698;SDS011;33708;49.466;11.176;2023-12-22T08:00:57;6.03;;;1.27;;
4698;SDS011;33708;49.466;11.176;2023-12-22T08:03:23;4.80;;;1.60;;
4698;SDS011;33708;49.466;11.176;2023-12-22T08:05:49;3.87;;;1.40;;
4698;SDS011;33708;49.466;11.176;2023-12-22T08:08:14;5.13;;;1.30;;
4698;SDS011;33708;49.466;11.176;2023-12-22T08:10:40;6.27;;;1.30;;
4698;SDS011;33708;49.466;11.176;2023-12-22T08:13:06;8.27;;;1.90;;
4698;SDS011;33708;49.466;11.176;2023-12-22T08:15:31;3.33;;;1.20;;
4698;SDS011;33708;49.466;11.176;2023-12-22T08:17:57;4.80;;;1.20;;
4698;SDS011;33708;49.466;11.176;2023-12-22T08:20:23;3.40;;;1.23;;
4698;SDS011;33708;49.466;11.176;2023-12-22T08:22:49;2.90;;;1.17;;
4698;SDS011;33708;49.466;11.176;2023-12-22T08:25:16;3.90;;;1.30;;
4698;SDS011;33708;49.466;11.176;2023-12-22T08:27:44;5.50;;;1.23;;
4698;SDS011;33708;49.466;11.176;2023-12-22T08:30:10;6.90;;;1.40;;
4698;SDS011;33708;49.466;11.176;2023-12-22T08:32:36;6.80;;;1.60;;
4698;SDS011;33708;49.466;11.176;2023-12-22T08:35:02;8.60;;;1.40;;
4698;SDS011;33708;49.466;11.176;2023-12-22T08:37:30;5.27;;;1.40;;
4698;SDS011;33708;49.466;11.176;2023-12-22T08:39:56;4.20;;;1.60;;
4698;SDS011;33708;49.466;11.176;2023-12-22T08:42:22;11.23;;;1.50;;
4698;SDS011;33708;49.466;11.176;2023-12-22T08:44:48;5.10;;;1.27;;
4698;SDS011;33708;49.466;11.176;2023-12-22T08:47:14;5.60;;;1.50;;
4698;SDS011;33708;49.466;11.176;2023-12-22T08:49:40;5.67;;;1.47;;
4698;SDS011;33708;49.466;11.176;2023-12-22T08:52:06;6.37;;;1.73;;
4698;SDS011;33708;49.466;11.176;2023-12-22T08:54:32;3.50;;;1.07;;
4698;SDS011;33708;49.466;11.176;2023-12-22T08:56:59;5.17;;;1.13;;
4698;SDS011;33708;49.466;11.176;2023-12-22T08:59:24;5.60;;;1.17;;
4698;SDS011;33708;49.466;11.176;2023-12-22T09:01:50;4.30;;;1.00;;
4698;SDS011;33708;49.466;11.176;2023-12-22T09:04:16;7.20;;;1.20;;
4698;SDS011;33708;49.466;11.176;2023-12-22T09:06:41;3.20;;;1.10;;
4698;SDS011;33708;49.466;11.176;2023-12-22T09:09:07;4.27;;;1.17;;
4698;SDS011;33708;49.466;11.176;2023-12-22T09:11:34;5.77;;;1.10;;
4698;SDS011;33708;49.466;11.176;2023-12-22T09:14:00;3.60;;;1.23;;
4698;SDS011;33708;49.466;11.176;2023-12-22T09:16:25;3.43;;;1.33;;
4698;SDS011;33708;49.466;11.176;2023-12-22T09:18:52;6.40;;;1.70;;
4698;SDS011;33708;49.466;11.176;2023-12-22T09:21:18;4.77;;;1.20;;
4698;SDS011;33708;49.466;11.176;2023-12-22T09:23:47;7.13;;;1.70;;
4698;SDS011;33708;49.466;11.176;2023-12-22T09:26:13;11.77;;;1.60;;
4698;SDS011;33708;49.466;11.176;2023-12-22T09:28:39;5.80;;;1.37;;
4698;SDS011;33708;49.466;11.176;2023-12-22T09:31:06;10.30;;;1.77;;
4698;SDS011;33708;49.466;11.176;2023-12-22T09:33:33;5.50;;;1.80;;
4698;SDS011;33708;49.466;11.176;2023-12-22T09:35:58;7.13;;;1.43;;
4698;SDS011;33708;49.466;11.176;2023-12-22T09:38:24;5.87;;;1.43;;
4698;SDS011;33708;49.466;11.176;2023-12-22T09:40:50;6.83;;;1.53;;
4698;SDS011;33708;49.466;11.176;2023-12-22T09:43:15;4.97;;;1.30;;
4698;SDS011;33708;49.466;11.176;2023-12-22T09:45:44;6.50;;;1.90;;
4698;SDS011;33708;49.466;11.176;2023-12-22T09:48:12;13.87;;;2.57;;
4698;SDS011;33708;49.466;11.176;2023-12-22T09:50:42;9.33;;;1.63;;
4698;SDS011;33708;49.466;11.176;2023-12-22T09:53:09;7.30;;;1.53;;
4698;SDS011;33708;49.466;11.176;2023-12-22T09:55:39;21.20;;;2.20;;
4698;SDS011;33708;49.466;11.176;2023-12-22T09:58:08;8.83;;;1.40;;
4698;SDS011;33708;49.466;11.176;2023-12-22T10:00:35;9.27;;;1.97;;
4698;SDS011;33708;49.466;11.176;2023-12-22T10:03:04;10.43;;;1.60;;
4698;SDS011;33708;49.466;11.176;2023-12-22T10:05:31;7.33;;;1.30;;
4698;SDS011;33708;49.466;11.176;2023-12-22T10:07:56;8.73;;;1.40;;
4698;SDS011;33708;49.466;11.176;2023-12-22T10:10:23;4.40;;;1.10;;
4698;SDS011;33708;49.466;11.176;2023-12-22T10:12:49;11.23;;;1.47;;
4698;SDS011;33708;49.466;11.176;2023-12-22T10:15:17;8.17;;;1.60;;
4698;SDS011;33708;49.466;11.176;2023-12-22T10:17:48;6.83;;;1.70;;
4698;SDS011;33708;49.466;11.176;2023-12-22T10:20:16;5.60;;;1.37;;
4698;SDS011;33708;49.466;11.176;2023-12-22T10:22:41;5.67;;;1.20;;
4698;SDS011;33708;49.466;11.176;2023-12-22T10:25:08;6.00;;;1.50;;
4698;SDS011;33708;49.466;11.176;2023-12-22T10:27:34;4.97;;;0.87;;
4698;SDS011;33708;49.466;11.176;2023-12-22T10:30:02;4.43;;;1.07;;
4698;SDS011;33708;49.466;11.176;2023-12-22T10:32:28;4.13;;;1.00;;
4698;SDS011;33708;49.466;11.176;2023-12-22T10:34:55;6.10;;;1.33;;
4698;SDS011;33708;49.466;11.176;2023-12-22T10:37:22;5.47;;;1.37;;
4698;SDS011;33708;49.466;11.176;2023-12-22T10:39:51;3.60;;;0.90;;
4698;SDS011;33708;49.466;11.176;2023-12-22T10:42:18;3.33;;;0.90;;
4698;SDS011;33708;49.466;11.176;2023-12-22T10:44:43;4.27;;;1.37;;
4698;SDS011;33708;49.466;11.176;2023-12-22T10:47:10;4.90;;;1.10;;
4698;SDS011;33708;49.466;11.176;2023-12-22T10:49:36;4.43;;;1.10;;
4698;SDS011;33708;49.466;11.176;2023-12-22T10:52:02;3.40;;;0.97;;
4698;SDS011;33708;49.466;11.176;2023-12-22T10:54:27;6.90;;;1.37;;
4698;SDS011;33708;49.466;11.176;2023-12-22T10:56:58;3.20;;;0.90;;
4698;SDS011;33708;49.466;11.176;2023-12-22T10:59:30;3.03;;;1.07;;
4698;SDS011;33708;49.466;11.176;2023-12-22T11:01:58;3.17;;;0.70;;
4698;SDS011;33708;49.466;11.176;2023-12-22T11:04:29;4.80;;;0.93;;
4698;SDS011;33708;49.466;11.176;2023-12-22T11:06:59;6.20;;;1.03;;
4698;SDS011;33708;49.466;11.176;2023-12-22T11:09:28;5.63;;;1.43;;
4698;SDS011;33708;49.466;11.176;2023-12-22T11:11:57;6.63;;;1.30;;
4698;SDS011;33708;49.466;11.176;2023-12-22T11:14:26;5.80;;;1.60;;
4698;SDS011;33708;49.466;11.176;2023-12-22T11:16:54;9.50;;;1.87;;
4698;SDS011;33708;49.466;11.176;2023-12-22T11:19:20;7.93;;;2.20;;
4698;SDS011;33708;49.466;11.176;2023-12-22T11:21:48;6.13;;;2.10;;
4698;SDS011;33708;49.466;11.176;2023-12-22T11:24:17;4.43;;;1.43;;
4698;SDS011;33708;49.466;11.176;2023-12-22T11:26:43;6.60;;;1.57;;
4698;SDS011;33708;49.466;11.176;2023-12-22T11:29:12;7.53;;;1.83;;
4698;SDS011;33708;49.466;11.176;2023-12-22T11:31:39;7.03;;;1.80;;
4698;SDS011;33708;49.466;11.176;2023-12-22T11:34:06;6.47;;;1.60;;
4698;SDS011;33708;49.466;11.176;2023-12-22T11:39:56;2.63;;;1.20;;
4698;SDS011;33708;49.466;11.176;2023-12-22T11:42:23;5.30;;;1.77;;
4698;SDS011;33708;49.466;11.176;2023-12-22T11:44:52;5.30;;;1.53;;
4698;SDS011;33708;49.466;11.176;2023-12-22T11:47:21;5.37;;;1.13;;
4698;SDS011;33708;49.466;11.176;2023-12-22T11:49:48;5.43;;;1.63;;
4698;SDS011;33708;49.466;11.176;2023-12-22T11:52:16;6.33;;;1.67;;
4698;SDS011;33708;49.466;11.176;2023-12-22T11:54:46;4.27;;;1.30;;
4698;SDS011;33708;49.466;11.176;2023-12-22T11:59:57;5.30;;;1.90;;
4698;SDS011;33708;49.466;11.176;2023-12-22T12:02:23;5.77;;;1.90;;
4698;SDS011;33708;49.466;11.176;2023-12-22T12:04:52;6.80;;;1.40;;
4698;SDS011;33708;49.466;11.176;2023-12-22T12:13:12;7.53;;;1.80;;
4698;SDS011;33708;49.466;11.176;2023-12-22T12:15:41;9.53;;;1.60;;
4698;SDS011;33708;49.466;11.176;2023-12-22T12:18:07;6.93;;;1.93;;
4698;SDS011;33708;49.466;11.176;2023-12-22T12:20:34;6.27;;;1.80;;
4698;SDS011;33708;49.466;11.176;2023-12-22T12:23:03;6.83;;;1.77;;
4698;SDS011;33708;49.466;11.176;2023-12-22T12:25:29;7.30;;;1.90;;
4698;SDS011;33708;49.466;11.176;2023-12-22T12:28:07;6.13;;;2.07;;
4698;SDS011;33708;49.466;11.176;2023-12-22T12:30:37;12.73;;;2.00;;
4698;SDS011;33708;49.466;11.176;2023-12-22T12:33:10;9.47;;;2.30;;
4698;SDS011;33708;49.466;11.176;2023-12-22T12:35:37;9.10;;;2.70;;
4698;SDS011;33708;49.466;11.176;2023-12-22T12:38:04;9.77;;;2.20;;
4698;SDS011;33708;49.466;11.176;2023-12-22T12:43:28;9.10;;;2.43;;
4698;SDS011;33708;49.466;11.176;2023-12-22T12:45:54;15.23;;;3.03;;
4698;SDS011;33708;49.466;11.176;2023-12-22T12:48:20;9.67;;;2.60;;
4698;SDS011;33708;49.466;11.176;2023-12-22T12:50:47;20.23;;;3.23;;
4698;SDS011;33708;49.466;11.176;2023-12-22T12:53:12;23.47;;;3.77;;
4698;SDS011;33708;49.466;11.176;2023-12-22T12:55:38;16.00;;;3.73;;
4698;SDS011;33708;49.466;11.176;2023-12-22T12:58:04;15.40;;;3.00;;
4698;SDS011;33708;49.466;11.176;2023-12-22T13:00:30;16.70;;;3.07;;
4698;SDS011;33708;49.466;11.176;2023-12-22T13:03:00;15.47;;;2.90;;
4698;SDS011;33708;49.466;11.176;2023-12-22T13:05:30;14.87;;;3.30;;
4698;SDS011;33708;49.466;11.176;2023-12-22T13:08:06;20.87;;;4.33;;
4698;SDS011;33708;49.466;11.176;2023-12-22T13:10:35;21.30;;;3.50;;
4698;SDS011;33708;49.466;11.176;2023-12-22T13:13:02;17.03;;;3.77;;
4698;SDS011;33708;49.466;11.176;2023-12-22T13:15:28;14.90;;;2.83;;
4698;SDS011;33708;49.466;11.176;2023-12-22T13:17:54;18.00;;;3.37;;
4698;SDS011;33708;49.466;11.176;2023-12-22T13:20:20;17.93;;;4.30;;
4698;SDS011;33708;49.466;11.176;2023-12-22T13:22:46;12.73;;;2.90;;
4698;SDS011;33708;49.466;11.176;2023-12-22T13:25:11;9.83;;;2.60;;
4698;SDS011;33708;49.466;11.176;2023-12-22T13:27:50;15.57;;;3.20;;
4698;SDS011;33708;49.466;11.176;2023-12-22T13:30:33;18.83;;;3.43;;
4698;SDS011;33708;49.466;11.176;2023-12-22T13:33:06;16.13;;;3.07;;
4698;SDS011;33708;49.466;11.176;2023-12-22T13:35:32;10.43;;;2.23;;
4698;SDS011;33708;49.466;11.176;2023-12-22T13:38:01;17.27;;;3.90;;
4698;SDS011;33708;49.466;11.176;2023-12-22T13:40:30;11.67;;;2.50;;
4698;SDS011;33708;49.466;11.176;2023-12-22T13:42:56;18.10;;;2.80;;
4698;SDS011;33708;49.466;11.176;2023-12-22T13:45:22;19.03;;;2.80;;
4698;SDS011;33708;49.466;11.176;2023-12-22T13:47:51;10.40;;;2.47;;
4698;SDS011;33708;49.466;11.176;2023-12-22T13:50:17;10.33;;;2.20;;
4698;SDS011;33708;49.466;11.176;2023-12-22T13:52:43;8.43;;;2.37;;
4698;SDS011;33708;49.466;11.176;2023-12-22T13:55:13;8.77;;;2.00;;
4698;SDS011;33708;49.466;11.176;2023-12-22T13:57:40;4.90;;;1.20;;
4698;SDS011;33708;49.466;11.176;2023-12-22T14:02:41;8.70;;;1.90;;
4698;SDS011;33708;49.466;11.176;2023-12-22T14:05:07;10.03;;;2.03;;
4698;SDS011;33708;49.466;11.176;2023-12-22T14:07:33;5.37;;;1.47;;
4698;SDS011;33708;49.466;11.176;2023-12-22T14:10:04;7.47;;;1.73;;
4698;SDS011;33708;49.466;11.176;2023-12-22T14:12:33;6.20;;;1.77;;
4698;SDS011;33708;49.466;11.176;2023-12-22T14:14:58;11.10;;;1.80;;
4698;SDS011;33708;49.466;11.176;2023-12-22T14:17:24;7.30;;;2.27;;
4698;SDS011;33708;49.466;11.176;2023-12-22T14:19:50;7.13;;;1.47;;
4698;SDS011;33708;49.466;11.176;2023-12-22T14:22:15;9.50;;;2.00;;
4698;SDS011;33708;49.466;11.176;2023-12-22T14:24:41;7.93;;;2.03;;
4698;SDS011;33708;49.466;11.176;2023-12-22T14:27:07;7.77;;;1.90;;
4698;SDS011;33708;49.466;11.176;2023-12-22T14:29:34;10.67;;;2.50;;
4698;SDS011;33708;49.466;11.176;2023-12-22T14:32:01;6.07;;;2.07;;
4698;SDS011;33708;49.466;11.176;2023-12-22T14:34:27;11.80;;;2.40;;
4698;SDS011;33708;49.466;11.176;2023-12-22T14:36:53;6.00;;;1.97;;
4698;SDS011;33708;49.466;11.176;2023-12-22T14:39:18;9.70;;;2.40;;
4698;SDS011;33708;49.466;11.176;2023-12-22T14:41:44;5.73;;;2.03;;
4698;SDS011;33708;49.466;11.176;2023-12-22T14:44:11;5.67;;;1.80;;
4698;SDS011;33708;49.466;11.176;2023-12-22T14:46:37;4.07;;;1.70;;
4698;SDS011;33708;49.466;11.176;2023-12-22T14:49:04;8.87;;;2.13;;
4698;SDS011;33708;49.466;11.176;2023-12-22T14:51:34;3.37;;;1.50;;
4698;SDS011;33708;49.466;11.176;2023-12-22T14:54:01;4.30;;;1.47;;
4698;SDS011;33708;49.466;11.176;2023-12-22T14:56:26;5.17;;;1.50;;
4698;SDS011;33708;49.466;11.176;2023-12-22T14:58:52;5.73;;;1.60;;
4698;SDS011;33708;49.466;11.176;2023-12-22T15:01:17;5.80;;;1.33;;
4698;SDS011;33708;49.466;11.176;2023-12-22T15:03:43;4.37;;;1.20;;
4698;SDS011;33708;49.466;11.176;2023-12-22T15:06:08;5.77;;;1.20;;
4698;SDS011;33708;49.466;11.176;2023-12-22T15:08:34;2.60;;;0.90;;
4698;SDS011;33708;49.466;11.176;2023-12-22T15:11:00;3.07;;;1.00;;
4698;SDS011;33708;49.466;11.176;2023-12-22T15:13:25;3.93;;;1.20;;
4698;SDS011;33708;49.466;11.176;2023-12-22T15:15:51;5.73;;;1.20;;
4698;SDS011;33708;49.466;11.176;2023-12-22T15:18:17;3.07;;;0.90;;
4698;SDS011;33708;49.466;11.176;2023-12-22T15:20:43;4.70;;;0.80;;
4698;SDS011;33708;49.466;11.176;2023-12-22T15:23:08;2.97;;;1.03;;
4698;SDS011;33708;49.466;11.176;2023-12-22T15:25:34;2.80;;;0.83;;
4698;SDS011;33708;49.466;11.176;2023-12-22T15:28:00;4.03;;;1.33;;
4698;SDS011;33708;49.466;11.176;2023-12-22T15:30:26;3.80;;;0.87;;
4698;SDS011;33708;49.466;11.176;2023-12-22T15:32:53;4.80;;;0.80;;
4698;SDS011;33708;49.466;11.176;2023-12-22T15:35:18;2.50;;;0.80;;
4698;SDS011;33708;49.466;11.176;2023-12-22T15:37:44;2.70;;;0.80;;
4698;SDS011;33708;49.466;11.176;2023-12-22T15:40:10;3.53;;;1.43;;